Time;durP1;ratioP1;P1;durP2;ratioP2;P2;SDS_P1;SDS_P2;PMS_P1;PMS_P2;Temp;Humidity;BMP_temperature;BMP_pressure;BME280_temperature;BME280_humidity;BME280_pressure;Samples;Min_cycle;Max_cycle;Signal;HPM_P1;HPM_P2
2021/12/05 00:24:29;;;;;;;11.52;4.55;;;4.70;99.90;;;;;;5052105;28;20052;-85
2021/12/05 00:27:03;;;;;;;15.98;5.78;;;4.80;99.90;;;;;;5053459;28;20048;-85
2021/12/05 00:29:46;;;;;;;15.48;5.47;;;4.80;99.90;;;;;;5053080;28;20044;-84
2021/12/05 00:32:28;;;;;;;12.32;4.88;;;4.70;99.90;;;;;;5053142;28;20091;-84
2021/12/05 00:38:15;;;;;;;14.25;5.25;;;4.70;99.90;;;;;;5053173;28;20394;-84
2021/12/05 00:43:42;;;;;;;15.25;5.03;;;4.70;99.90;;;;;;5052357;28;20048;-84
2021/12/05 00:46:40;;;;;;;13.52;4.53;;;4.70;99.90;;;;;;5052720;28;20413;-85
2021/12/05 00:57:49;;;;;;;14.27;4.57;;;4.60;99.90;;;;;;4992610;28;20050;-85
2021/12/05 01:03:26;;;;;;;11.52;4.80;;;4.70;99.90;;;;;;5006479;28;20040;-84
2021/12/05 01:08:43;;;;;;;12.32;5.35;;;4.70;99.90;;;;;;5053083;28;20045;-85
2021/12/05 01:11:22;;;;;;;17.33;4.63;;;4.60;99.90;;;;;;5053003;28;20405;-84
2021/12/05 01:14:09;;;;;;;14.95;5.85;;;4.60;99.90;;;;;;5035782;28;20037;-84
2021/12/05 01:16:36;;;;;;;16.70;5.78;;;4.60;99.90;;;;;;5052556;28;20041;-84
2021/12/05 01:19:02;;;;;;;14.48;5.22;;;4.60;99.90;;;;;;5069538;28;20044;-85
2021/12/05 01:21:28;;;;;;;14.13;4.90;;;4.60;99.90;;;;;;5052987;28;20485;-85
2021/12/05 01:24:21;;;;;;;15.90;5.30;;;4.60;99.90;;;;;;5051039;28;20094;-84
2021/12/05 01:29:35;;;;;;;14.18;6.10;;;4.60;99.90;;;;;;5052318;28;20568;-85
2021/12/05 01:40:19;;;;;;;16.08;5.60;;;4.60;99.90;;;;;;5051967;28;20049;-84
2021/12/05 01:43:23;;;;;;;15.13;5.75;;;4.60;99.90;;;;;;5056379;28;20052;-84
2021/12/05 01:59:11;;;;;;;19.50;8.98;;;4.70;99.90;;;;;;5056127;28;20131;-83
2021/12/05 02:37:07;;;;;;;26.65;11.00;;;4.80;99.90;;;;;;5055483;28;20045;-85
2021/12/05 02:42:13;;;;;;;30.10;12.98;;;4.80;99.90;;;;;;5055731;28;20580;-85
2021/12/05 02:44:41;;;;;;;22.88;11.63;;;4.80;99.90;;;;;;5038274;28;20044;-85
2021/12/05 02:47:14;;;;;;;23.23;10.85;;;4.80;99.90;;;;;;5055321;28;20052;-85
2021/12/05 02:49:44;;;;;;;23.73;10.25;;;4.80;99.90;;;;;;5073211;28;20124;-84
2021/12/05 02:52:19;;;;;;;23.85;10.95;;;4.80;99.90;;;;;;5054996;28;20036;-84
2021/12/05 02:54:50;;;;;;;23.05;11.25;;;4.80;99.90;;;;;;5055036;28;20042;-85
2021/12/05 02:57:19;;;;;;;20.08;10.43;;;4.80;99.90;;;;;;5055025;28;20401;-84
2021/12/05 02:59:54;;;;;;;20.98;10.23;;;4.90;99.90;;;;;;5038261;28;20044;-84
2021/12/05 03:02:26;;;;;;;21.92;9.65;;;4.80;99.90;;;;;;5054680;28;20120;-84
2021/12/05 03:04:55;;;;;;;26.00;9.32;;;4.80;99.90;;;;;;5038176;28;20071;-85
2021/12/05 03:07:26;;;;;;;27.15;9.73;;;4.80;99.90;;;;;;5055061;28;20048;-84
2021/12/05 03:09:52;;;;;;;19.20;8.65;;;4.80;99.90;;;;;;5054841;28;20045;-84
2021/12/05 03:12:19;;;;;;;17.17;8.15;;;4.80;99.90;;;;;;5054986;28;20033;-84
2021/12/05 03:14:46;;;;;;;18.30;8.85;;;4.80;99.90;;;;;;5054646;28;20119;-84
2021/12/05 03:17:12;;;;;;;17.48;8.00;;;4.80;99.90;;;;;;5055113;28;20037;-85
2021/12/05 03:19:38;;;;;;;16.00;7.20;;;4.80;99.90;;;;;;5055149;28;20047;-84
2021/12/05 03:22:04;;;;;;;18.75;7.65;;;4.80;99.90;;;;;;5054721;28;20555;-84
2021/12/05 03:24:30;;;;;;;17.88;7.80;;;4.80;99.90;;;;;;5053053;28;20040;-84
2021/12/05 03:26:56;;;;;;;16.25;7.82;;;4.70;99.90;;;;;;5054423;28;20040;-84
2021/12/05 03:29:23;;;;;;;18.58;8.25;;;4.70;99.90;;;;;;5054457;28;20044;-84
2021/12/05 03:31:51;;;;;;;17.42;7.57;;;4.70;99.90;;;;;;5054169;28;20043;-84
2021/12/05 03:34:18;;;;;;;16.95;7.00;;;4.70;99.90;;;;;;5053484;28;20033;-84
2021/12/05 03:36:46;;;;;;;18.48;6.93;;;4.70;99.90;;;;;;5037293;28;20144;-84
2021/12/05 03:39:13;;;;;;;21.13;7.00;;;4.60;99.90;;;;;;5053953;28;20072;-84
2021/12/05 03:41:40;;;;;;;17.02;7.05;;;4.60;99.90;;;;;;5037689;28;20032;-84
2021/12/05 03:44:09;;;;;;;16.42;6.55;;;4.60;99.90;;;;;;5053922;28;20083;-84
2021/12/05 03:46:35;;;;;;;16.45;6.70;;;4.60;99.90;;;;;;5054211;28;20093;-84
2021/12/05 03:49:05;;;;;;;16.85;5.60;;;4.60;99.90;;;;;;5053615;28;20105;-84
2021/12/05 03:51:34;;;;;;;15.52;5.20;;;4.50;99.90;;;;;;5053835;28;20033;-84
2021/12/05 03:54:00;;;;;;;13.60;6.53;;;4.50;99.90;;;;;;5053384;28;20047;-84
2021/12/05 03:56:26;;;;;;;18.10;5.43;;;4.50;99.90;;;;;;5053530;28;20068;-84
2021/12/05 03:58:52;;;;;;;17.85;5.82;;;4.50;99.90;;;;;;5053572;28;20465;-84
2021/12/05 04:01:18;;;;;;;14.63;5.85;;;4.50;99.90;;;;;;5053374;28;20086;-84
2021/12/05 04:03:46;;;;;;;20.42;5.50;;;4.50;99.90;;;;;;5053391;28;20696;-84
2021/12/05 04:06:14;;;;;;;17.63;6.30;;;4.50;99.90;;;;;;5053872;28;20032;-84
2021/12/05 04:08:41;;;;;;;14.95;5.15;;;4.40;99.90;;;;;;5054056;28;20044;-84
2021/12/05 04:11:11;;;;;;;20.15;5.38;;;4.40;99.90;;;;;;5053549;28;20414;-84
2021/12/05 04:13:37;;;;;;;16.45;5.22;;;4.30;99.90;;;;;;5070638;28;20044;-84
2021/12/05 04:16:05;;;;;;;14.90;5.43;;;4.30;99.90;;;;;;5052792;28;20037;-84
2021/12/05 04:18:31;;;;;;;12.85;4.93;;;4.30;99.90;;;;;;5053117;28;20093;-84
2021/12/05 04:20:57;;;;;;;19.30;5.15;;;4.30;99.90;;;;;;5053097;28;20501;-84
2021/12/05 04:23:23;;;;;;;17.42;5.15;;;4.20;99.90;;;;;;5052996;28;20036;-84
2021/12/05 04:25:51;;;;;;;18.25;4.97;;;4.20;99.90;;;;;;5053591;28;20505;-84
2021/12/05 04:28:17;;;;;;;15.52;5.28;;;4.20;99.90;;;;;;5053218;28;20052;-84
2021/12/05 04:30:43;;;;;;;12.95;4.72;;;4.10;99.90;;;;;;5053518;28;20040;-84
2021/12/05 04:33:09;;;;;;;16.13;5.03;;;4.10;99.90;;;;;;5053426;28;20040;-84
2021/12/05 04:35:35;;;;;;;16.80;5.40;;;4.10;99.90;;;;;;5053240;28;20040;-84
2021/12/05 04:38:01;;;;;;;17.25;5.47;;;4.00;99.90;;;;;;5054542;28;20047;-84
2021/12/05 04:40:26;;;;;;;19.02;5.22;;;4.00;99.90;;;;;;5056559;28;20050;-84
2021/12/05 04:42:52;;;;;;;18.35;5.57;;;4.00;99.90;;;;;;5060145;28;20498;-84
2021/12/05 04:45:25;;;;;;;14.63;5.57;;;4.00;99.90;;;;;;5052720;28;20043;-84
2021/12/05 04:47:51;;;;;;;18.30;5.13;;;4.00;99.90;;;;;;5053142;28;20044;-84
2021/12/05 04:50:17;;;;;;;16.58;4.63;;;3.90;99.90;;;;;;5053325;28;20043;-84
2021/12/05 04:52:43;;;;;;;14.73;4.72;;;3.90;99.90;;;;;;5053209;28;20135;-84
2021/12/05 04:55:10;;;;;;;17.13;5.35;;;3.90;99.90;;;;;;5052562;28;20040;-85
2021/12/05 04:57:37;;;;;;;15.40;4.50;;;3.90;99.90;;;;;;5052572;28;20123;-85
2021/12/05 05:00:12;;;;;;;21.27;5.63;;;3.90;99.90;;;;;;5069505;28;20089;-84
2021/12/05 05:02:38;;;;;;;17.70;5.88;;;3.90;99.90;;;;;;5053155;28;20579;-84
2021/12/05 05:05:04;;;;;;;17.42;5.90;;;4.00;99.90;;;;;;5052300;28;20048;-84
2021/12/05 05:07:30;;;;;;;20.30;5.90;;;4.00;99.90;;;;;;5053017;28;20048;-84
2021/12/05 05:10:07;;;;;;;19.38;5.72;;;4.00;99.90;;;;;;5052488;28;20171;-84
2021/12/05 05:12:33;;;;;;;20.80;6.32;;;4.00;99.90;;;;;;5052345;28;20553;-85
2021/12/05 05:14:59;;;;;;;17.73;4.95;;;4.00;99.90;;;;;;5052313;28;20171;-84
2021/12/05 05:17:25;;;;;;;17.35;5.40;;;4.00;99.90;;;;;;5053226;28;20037;-84
2021/12/05 05:19:56;;;;;;;13.95;5.28;;;3.90;99.90;;;;;;5052377;28;20125;-84
2021/12/05 05:46:49;;;;;;;18.02;5.75;;;3.90;99.90;;;;;;5056003;28;20044;-84
2021/12/05 05:49:16;;;;;;;19.00;5.45;;;3.90;99.90;;;;;;5055192;28;20053;-84
2021/12/05 05:51:42;;;;;;;17.67;5.05;;;3.90;99.90;;;;;;5056141;28;20048;-84
2021/12/05 05:54:08;;;;;;;16.88;5.03;;;3.90;99.90;;;;;;5056087;28;20041;-84
2021/12/05 05:56:35;;;;;;;15.18;4.68;;;4.00;99.90;;;;;;5056217;28;20047;-84
2021/12/05 05:59:07;;;;;;;17.65;5.05;;;3.90;99.90;;;;;;5056350;28;20028;-84
2021/12/05 06:04:02;;;;;;;19.75;5.82;;;3.90;99.90;;;;;;5055722;28;20468;-84
2021/12/05 06:06:30;;;;;;;15.80;5.57;;;4.00;99.90;;;;;;5056131;28;20115;-84
2021/12/05 06:08:56;;;;;;;18.08;5.35;;;4.00;99.90;;;;;;5037275;28;20520;-84
2021/12/05 06:11:22;;;;;;;22.45;5.63;;;4.00;99.90;;;;;;5055577;28;20068;-84
2021/12/05 06:13:48;;;;;;;15.93;5.65;;;4.00;99.90;;;;;;5055656;28;20040;-84
2021/12/05 06:16:15;;;;;;;14.68;6.15;;;4.00;99.90;;;;;;5055177;28;20047;-84
2021/12/05 06:18:41;;;;;;;18.50;7.00;;;4.00;99.90;;;;;;5055661;28;20085;-84
2021/12/05 06:21:08;;;;;;;17.77;7.05;;;4.10;99.90;;;;;;5056030;28;20119;-84
2021/12/05 06:23:35;;;;;;;16.75;6.80;;;4.10;99.90;;;;;;5037882;28;20549;-84
2021/12/05 06:26:02;;;;;;;20.20;7.40;;;4.00;99.90;;;;;;5055415;28;20052;-85
2021/12/05 06:28:34;;;;;;;19.85;7.60;;;4.10;99.90;;;;;;5055701;28;20518;-84
2021/12/05 06:31:09;;;;;;;19.55;7.32;;;4.10;99.90;;;;;;5055137;28;20124;-84
2021/12/05 06:47:24;;;;;;;18.52;8.05;;;4.20;99.90;;;;;;5055024;28;20044;-84
2021/12/05 06:49:51;;;;;;;18.85;7.75;;;4.30;99.90;;;;;;5055016;28;20044;-85
2021/12/05 06:52:16;;;;;;;16.13;7.50;;;4.30;99.90;;;;;;5055561;28;20143;-84
2021/12/05 06:54:42;;;;;;;18.48;8.60;;;4.30;99.90;;;;;;5054885;28;20493;-85
2021/12/05 06:57:09;;;;;;;19.58;9.30;;;4.30;99.90;;;;;;5056148;28;20044;-85
2021/12/05 06:59:38;;;;;;;19.02;8.63;;;4.30;99.90;;;;;;5061516;28;20055;-83
2021/12/05 07:02:04;;;;;;;20.92;8.55;;;4.30;99.90;;;;;;5050894;28;20052;-83
2021/12/05 07:07:23;;;;;;;19.80;9.23;;;4.40;99.90;;;;;;5070043;28;20439;-84
2021/12/05 07:09:49;;;;;;;23.42;8.85;;;4.40;99.90;;;;;;5074463;28;20492;-84
2021/12/05 07:15:11;;;;;;;19.52;9.23;;;4.40;99.90;;;;;;5067699;28;20410;-84
2021/12/05 07:20:41;;;;;;;23.80;9.88;;;4.50;99.90;;;;;;5074626;28;20048;-84
2021/12/05 07:23:21;;;;;;;20.97;8.33;;;4.50;99.90;;;;;;5073625;28;20044;-85
2021/12/05 07:25:53;;;;;;;16.20;8.32;;;4.50;99.90;;;;;;5074723;28;20289;-84
2021/12/05 07:42:08;;;;;;;17.33;8.43;;;4.60;99.90;;;;;;5074553;28;20048;-84
2021/12/05 07:44:34;;;;;;;23.02;9.88;;;4.60;99.90;;;;;;5074118;28;20051;-85
2021/12/05 07:46:59;;;;;;;22.60;9.48;;;4.60;99.90;;;;;;5057921;28;20047;-85
2021/12/05 07:49:25;;;;;;;23.02;8.50;;;4.60;99.90;;;;;;5073434;28;20656;-85
2021/12/05 07:51:51;;;;;;;19.67;8.35;;;4.70;99.90;;;;;;5056892;28;20500;-85
2021/12/05 07:54:40;;;;;;;19.33;9.07;;;4.70;99.90;;;;;;5073398;28;20132;-84
2021/12/05 07:57:18;;;;;;;19.38;8.82;;;4.70;99.90;;;;;;5073765;28;20040;-85
2021/12/05 08:16:13;;;;;;;16.00;7.32;;;4.80;99.90;;;;;;5073437;28;20130;-84
2021/12/05 08:18:38;;;;;;;19.15;8.63;;;4.90;99.90;;;;;;5072941;28;20040;-84
2021/12/05 08:21:07;;;;;;;16.92;7.45;;;4.90;99.90;;;;;;5073513;28;20043;-85
2021/12/05 08:23:33;;;;;;;20.23;7.68;;;4.90;99.90;;;;;;5071311;28;20123;-85
2021/12/05 08:26:13;;;;;;;17.85;6.82;;;4.90;99.90;;;;;;5056501;28;20632;-85
2021/12/05 08:31:35;;;;;;;15.77;7.18;;;4.90;99.90;;;;;;5072639;28;20131;-85
2021/12/05 08:34:26;;;;;;;18.67;7.50;;;4.90;99.90;;;;;;5055849;28;20123;-84
2021/12/05 08:43:00;;;;;;;16.25;6.78;;;5.00;99.90;;;;;;5072807;28;20130;-84
2021/12/05 09:24:20;;;;;;;15.95;6.32;;;5.20;99.90;;;;;;5042945;28;20571;-82
2021/12/05 09:27:07;;;;;;;14.02;5.82;;;5.20;99.90;;;;;;5044143;28;20041;-84
2021/12/05 09:50:51;;;;;;;15.43;5.72;;;5.30;99.90;;;;;;5029803;28;20041;-83
2021/12/05 10:02:23;;;;;;;12.93;5.55;;;5.40;99.90;;;;;;5051092;28;20156;-84
2021/12/05 10:08:02;;;;;;;14.43;5.63;;;5.40;99.90;;;;;;5052432;28;20131;-84
2021/12/05 10:13:39;;;;;;;21.23;6.57;;;5.40;99.90;;;;;;5008854;28;20044;-84
2021/12/05 10:27:26;;;;;;;15.70;6.30;;;5.60;99.90;;;;;;4956582;28;20070;-84
2021/12/05 10:35:53;;;;;;;15.70;6.72;;;5.70;99.90;;;;;;5050491;28;20045;-84
2021/12/05 10:38:24;;;;;;;19.95;7.38;;;5.80;99.90;;;;;;5034210;28;20044;-84
2021/12/05 10:41:02;;;;;;;14.10;6.65;;;5.80;99.90;;;;;;5067133;28;20417;-84
2021/12/05 10:43:30;;;;;;;14.57;6.35;;;5.90;99.90;;;;;;5069807;28;20421;-83
2021/12/05 10:46:03;;;;;;;18.17;6.63;;;5.90;99.90;;;;;;5027892;28;20036;-84
2021/12/05 10:48:41;;;;;;;11.63;5.95;;;6.00;99.90;;;;;;5044294;28;20063;-84
2021/12/05 10:51:09;;;;;;;17.33;6.35;;;6.00;99.90;;;;;;5066298;28;20044;-84
2021/12/05 10:53:50;;;;;;;14.40;5.38;;;6.00;99.90;;;;;;5037105;28;20033;-83
2021/12/05 10:56:17;;;;;;;11.70;5.47;;;6.00;99.90;;;;;;5053822;28;20173;-84
2021/12/05 10:58:56;;;;;;;11.93;5.95;;;6.10;99.90;;;;;;5053546;28;20068;-84
2021/12/05 11:01:39;;;;;;;16.10;5.72;;;6.10;99.90;;;;;;5036345;28;20117;-84
2021/12/05 11:04:08;;;;;;;13.85;5.18;;;6.10;99.90;;;;;;5052901;28;20047;-83
2021/12/05 11:06:37;;;;;;;14.27;6.13;;;6.20;99.90;;;;;;5071757;28;20505;-84
2021/12/05 11:09:05;;;;;;;14.70;6.43;;;6.20;99.90;;;;;;5053775;28;20063;-84
2021/12/05 11:11:31;;;;;;;14.07;5.43;;;6.20;99.90;;;;;;5053590;28;20036;-84
2021/12/05 11:13:58;;;;;;;11.75;5.13;;;6.20;99.90;;;;;;5052299;28;20043;-83
2021/12/05 11:16:43;;;;;;;13.90;5.53;;;6.30;99.90;;;;;;5053265;28;20047;-84
2021/12/05 11:19:23;;;;;;;13.20;5.18;;;6.30;99.90;;;;;;5037049;28;20402;-83
2021/12/05 11:21:54;;;;;;;13.88;5.45;;;6.40;99.90;;;;;;5053472;28;20037;-84
2021/12/05 11:24:33;;;;;;;14.43;5.47;;;6.40;99.90;;;;;;5051346;28;20033;-84
2021/12/05 11:27:16;;;;;;;13.57;5.00;;;6.40;99.90;;;;;;5052774;28;20401;-84
2021/12/05 11:29:49;;;;;;;15.02;5.18;;;6.40;99.90;;;;;;5053136;28;20045;-85
2021/12/05 11:32:26;;;;;;;10.90;4.97;;;6.50;99.90;;;;;;5013335;28;1069123;-84
2021/12/05 11:34:52;;;;;;;12.35;5.22;;;6.50;99.90;;;;;;5034275;28;20135;-84
2021/12/05 11:37:18;;;;;;;12.43;4.50;;;6.60;99.90;;;;;;5050803;28;20132;-83
2021/12/05 11:39:44;;;;;;;10.07;4.72;;;6.60;99.90;;;;;;5051158;28;20070;-84
2021/12/05 11:42:20;;;;;;;15.20;4.80;;;6.60;99.90;;;;;;5051305;28;20064;-83
2021/12/05 11:44:52;;;;;;;10.13;4.35;;;6.60;99.90;;;;;;5035174;28;20052;-84
2021/12/05 11:47:20;;;;;;;13.50;4.57;;;6.70;99.90;;;;;;5056843;28;20056;-83
2021/12/05 11:49:46;;;;;;;12.90;4.80;;;6.70;99.90;;;;;;5058340;28;20045;-84
2021/12/05 11:52:12;;;;;;;12.70;4.22;;;6.60;99.90;;;;;;5050669;28;20052;-84
2021/12/05 11:54:50;;;;;;;11.57;3.78;;;6.60;99.90;;;;;;5034092;28;20033;-84
2021/12/05 11:57:24;;;;;;;9.20;3.90;;;6.60;99.90;;;;;;5033760;28;20044;-84
2021/12/05 11:59:51;;;;;;;11.25;3.75;;;6.60;99.90;;;;;;5050445;28;20041;-84
2021/12/05 12:02:30;;;;;;;9.45;4.07;;;6.60;99.90;;;;;;5050882;28;20044;-84
2021/12/05 12:04:55;;;;;;;9.80;4.63;;;6.60;99.90;;;;;;5033283;28;20049;-84
2021/12/05 12:07:34;;;;;;;10.85;4.30;;;6.60;99.90;;;;;;5050049;28;20418;-84
2021/12/05 12:10:21;;;;;;;8.80;3.75;;;6.50;99.90;;;;;;5049632;28;20075;-83
2021/12/05 12:12:51;;;;;;;8.65;3.83;;;6.60;99.90;;;;;;5050242;28;20047;-84
2021/12/05 12:15:18;;;;;;;11.23;3.72;;;6.50;99.90;;;;;;5046706;28;20040;-83
2021/12/05 12:17:46;;;;;;;14.50;4.38;;;6.50;99.90;;;;;;5020640;28;20060;-83
2021/12/05 12:20:17;;;;;;;13.25;7.07;;;6.50;99.90;;;;;;5037267;28;20068;-84
2021/12/05 12:22:43;;;;;;;17.27;5.30;;;6.60;99.90;;;;;;5023180;28;20037;-88
2021/12/05 12:25:17;;;;;;;8.80;4.57;;;6.50;99.90;;;;;;5047999;28;20040;-89
2021/12/05 12:27:44;;;;;;;8.77;4.03;;;6.60;99.90;;;;;;5066256;28;20094;-89
2021/12/05 12:30:13;;;;;;;8.57;3.67;;;6.50;99.90;;;;;;5049265;28;20098;-88
2021/12/05 12:32:45;;;;;;;9.35;3.47;;;6.60;99.90;;;;;;5050134;28;20394;-88
2021/12/05 12:35:17;;;;;;;8.75;3.53;;;6.60;99.90;;;;;;5047921;28;20040;-89
2021/12/05 12:37:52;;;;;;;9.43;3.67;;;6.60;99.90;;;;;;5049162;28;20041;-89
2021/12/05 12:40:40;;;;;;;10.43;4.50;;;6.60;99.90;;;;;;5049755;28;20127;-89
2021/12/05 12:43:08;;;;;;;8.98;3.65;;;6.60;99.90;;;;;;5046765;28;20120;-89
2021/12/05 12:45:39;;;;;;;8.18;3.78;;;6.70;99.90;;;;;;5049493;28;20095;-88
2021/12/05 12:48:15;;;;;;;9.25;3.40;;;6.70;99.90;;;;;;5049274;28;20115;-88
2021/12/05 12:50:52;;;;;;;11.13;4.25;;;6.70;99.90;;;;;;5032643;28;20047;-88
2021/12/05 12:53:27;;;;;;;7.65;3.45;;;6.70;99.90;;;;;;5049899;28;20033;-88
2021/12/05 12:56:19;;;;;;;8.95;3.22;;;6.70;99.90;;;;;;5050006;28;20102;-89
2021/12/05 12:58:49;;;;;;;8.05;3.90;;;6.70;99.90;;;;;;5049912;28;20375;-89
2021/12/05 13:10:25;;;;;;;8.73;3.63;;;6.60;99.90;;;;;;5038359;28;20048;-88
2021/12/05 13:13:16;;;;;;;8.98;4.07;;;6.70;99.90;;;;;;5049604;28;20489;-88
2021/12/05 13:15:44;;;;;;;8.88;3.55;;;6.80;99.90;;;;;;5049300;28;20476;-88
2021/12/05 13:18:13;;;;;;;9.10;3.65;;;6.80;99.90;;;;;;5032698;28;20039;-88
2021/12/05 13:20:43;;;;;;;7.40;3.17;;;6.80;99.90;;;;;;5049562;28;20138;-88
2021/12/05 13:23:08;;;;;;;9.02;3.92;;;6.90;99.90;;;;;;5049727;28;20434;-89
2021/12/05 13:26:12;;;;;;;8.73;3.90;;;6.90;99.90;;;;;;5030881;28;20041;-89
2021/12/05 13:28:54;;;;;;;10.25;4.13;;;6.90;99.90;;;;;;5043049;28;20055;-88
2021/12/05 13:31:30;;;;;;;9.98;4.13;;;6.90;99.90;;;;;;5036271;28;20033;-89
2021/12/05 13:34:15;;;;;;;10.40;4.88;;;6.90;99.90;;;;;;5038337;28;20124;-89
2021/12/05 13:36:43;;;;;;;11.13;5.25;;;6.90;99.90;;;;;;5040713;28;20029;-89
2021/12/05 13:39:43;;;;;;;8.75;4.13;;;7.00;99.90;;;;;;5041186;28;20132;-89
2021/12/05 13:42:34;;;;;;;10.75;4.30;;;7.10;99.90;;;;;;5016663;28;20041;-89
2021/12/05 13:44:59;;;;;;;8.43;3.53;;;7.30;99.90;;;;;;5028122;28;20087;-89
2021/12/05 13:47:32;;;;;;;7.30;3.10;;;7.50;99.90;;;;;;5029092;28;20053;-90
2021/12/05 13:50:18;;;;;;;8.20;3.72;;;7.60;99.90;;;;;;5040350;28;20399;-89
2021/12/05 13:52:49;;;;;;;8.00;3.20;;;7.70;99.90;;;;;;5051981;28;20083;-89
2021/12/05 13:55:41;;;;;;;8.50;3.30;;;7.80;99.90;;;;;;5052018;28;20033;-89
2021/12/05 13:58:28;;;;;;;8.07;2.80;;;7.80;99.90;;;;;;5055350;28;20074;-89
2021/12/05 14:01:15;;;;;;;7.47;3.42;;;7.80;99.90;;;;;;5056228;28;20086;-88
2021/12/05 14:03:52;;;;;;;8.88;3.22;;;7.80;99.90;;;;;;5056197;28;20044;-89
2021/12/05 14:06:37;;;;;;;8.38;3.40;;;7.80;99.90;;;;;;5056380;28;20114;-89
2021/12/05 14:09:20;;;;;;;7.25;3.22;;;7.80;99.90;;;;;;5039730;28;20041;-90
2021/12/05 14:11:57;;;;;;;8.00;3.28;;;7.80;99.90;;;;;;5057206;28;20131;-89
2021/12/05 14:14:27;;;;;;;7.93;2.95;;;7.80;99.90;;;;;;5059605;28;20078;-89
2021/12/05 14:16:56;;;;;;;8.20;3.42;;;7.80;99.90;;;;;;5042283;28;20041;-90
2021/12/05 14:19:25;;;;;;;7.88;3.38;;;7.70;99.90;;;;;;5052138;28;20134;-89
2021/12/05 14:21:53;;;;;;;8.43;3.38;;;7.70;99.90;;;;;;5035181;28;20098;-89
2021/12/05 14:24:22;;;;;;;8.68;3.47;;;7.70;99.90;;;;;;5051484;28;20097;-89
2021/12/05 14:26:50;;;;;;;7.53;3.30;;;7.70;99.90;;;;;;5052827;28;20055;-89
2021/12/05 14:29:23;;;;;;;9.80;3.63;;;7.70;99.90;;;;;;5052345;28;20045;-89
2021/12/05 14:31:57;;;;;;;8.63;3.58;;;7.70;99.90;;;;;;5035647;28;20037;-89
2021/12/05 14:34:23;;;;;;;8.45;3.35;;;7.60;99.90;;;;;;5034839;28;20099;-89
2021/12/05 14:36:56;;;;;;;7.57;3.50;;;7.60;99.90;;;;;;5052612;28;20041;-89
2021/12/05 14:39:29;;;;;;;8.80;3.40;;;7.60;99.90;;;;;;5034951;28;20112;-89
2021/12/05 14:42:00;;;;;;;7.80;3.70;;;7.60;99.90;;;;;;5051677;28;20041;-89
2021/12/05 14:44:26;;;;;;;8.15;3.63;;;7.60;99.90;;;;;;5051189;28;20037;-89
2021/12/05 14:47:01;;;;;;;7.82;3.83;;;7.60;99.90;;;;;;5035774;28;20860;-89
2021/12/05 14:49:32;;;;;;;9.80;3.72;;;7.60;99.90;;;;;;5035477;28;20060;-89
2021/12/05 14:52:01;;;;;;;7.53;3.20;;;7.50;99.90;;;;;;5051910;28;20043;-89
2021/12/05 14:54:37;;;;;;;9.43;4.30;;;7.40;99.90;;;;;;5052715;28;20036;-89
2021/12/05 14:57:10;;;;;;;7.28;3.88;;;7.40;99.90;;;;;;5035167;28;20048;-89
2021/12/05 14:59:36;;;;;;;;;;;7.30;99.90;;;;;;5050588;28;20052;-88
2021/12/05 15:02:04;;;;;;;6.95;3.70;;;7.20;99.90;;;;;;5048025;28;19921;-84
2021/12/05 15:04:40;;;;;;;7.80;3.63;;;7.20;99.90;;;;;;5014737;28;20069;-84
2021/12/05 15:07:07;;;;;;;8.25;4.00;;;7.10;99.90;;;;;;5030850;28;20049;-84
2021/12/05 15:09:41;;;;;;;10.32;4.22;;;7.10;99.90;;;;;;5031758;28;20043;-84
2021/12/05 15:12:09;;;;;;;9.13;4.05;;;7.00;99.90;;;;;;5031752;28;20146;-84
2021/12/05 15:14:37;;;;;;;9.65;3.75;;;7.00;99.90;;;;;;5031222;28;20081;-84
2021/12/05 15:17:17;;;;;;;8.82;4.20;;;7.00;99.90;;;;;;5031107;28;20041;-84
2021/12/05 15:19:46;;;;;;;8.13;3.55;;;6.90;99.90;;;;;;5030605;28;20045;-84
2021/12/05 15:22:12;;;;;;;9.20;4.32;;;6.90;99.90;;;;;;5031312;28;20049;-83
2021/12/05 15:24:39;;;;;;;8.27;4.18;;;6.90;99.90;;;;;;5048026;28;20045;-84
2021/12/05 15:27:12;;;;;;;8.30;4.03;;;6.80;99.90;;;;;;5034504;28;20081;-84
2021/12/05 15:29:48;;;;;;;8.38;4.20;;;6.80;99.90;;;;;;5051895;28;20114;-84
2021/12/05 15:32:20;;;;;;;8.63;4.22;;;6.80;99.90;;;;;;5034287;28;20174;-84
2021/12/05 15:34:53;;;;;;;11.32;5.40;;;6.80;99.90;;;;;;5050467;28;20039;-82
2021/12/05 15:37:19;;;;;;;9.40;4.38;;;6.80;99.90;;;;;;5047362;28;20033;-81
2021/12/05 15:39:48;;;;;;;9.50;5.38;;;6.70;99.90;;;;;;5032123;28;20043;-82
2021/12/05 15:42:27;;;;;;;10.65;5.55;;;6.70;99.90;;;;;;5051900;28;20049;-82
2021/12/05 15:44:55;;;;;;;10.48;5.07;;;6.70;99.90;;;;;;5053303;28;20071;-82
2021/12/05 15:47:27;;;;;;;11.43;5.95;;;6.70;99.90;;;;;;5049702;28;20055;-84
2021/12/05 15:50:18;;;;;;;10.10;5.80;;;6.60;99.90;;;;;;5050350;28;20585;-82
2021/12/05 15:52:52;;;;;;;9.85;5.55;;;6.60;99.90;;;;;;5049250;28;20115;-82
2021/12/05 15:55:31;;;;;;;10.80;5.45;;;6.60;99.90;;;;;;5049916;28;20686;-83
2021/12/05 15:58:09;;;;;;;10.25;6.43;;;6.60;99.90;;;;;;5049737;28;20442;-82
2021/12/05 16:00:41;;;;;;;10.32;6.20;;;6.60;99.90;;;;;;5049861;28;20036;-83
2021/12/05 16:03:19;;;;;;;11.48;5.82;;;6.60;99.90;;;;;;5050160;28;20494;-84
2021/12/05 16:05:55;;;;;;;10.50;5.57;;;6.50;99.90;;;;;;5033149;28;20075;-84
2021/12/05 16:08:21;;;;;;;13.75;7.63;;;6.50;99.90;;;;;;5050277;28;20037;-83
2021/12/05 16:10:57;;;;;;;13.45;8.30;;;6.50;99.90;;;;;;5049718;28;20532;-84
2021/12/05 16:13:38;;;;;;;12.75;7.78;;;6.50;99.90;;;;;;5033826;28;20048;-83
2021/12/05 16:16:20;;;;;;;14.63;8.30;;;6.50;99.90;;;;;;5050431;28;20143;-84
2021/12/05 16:18:49;;;;;;;14.33;8.00;;;6.40;99.90;;;;;;5021195;28;20112;-83
2021/12/05 16:21:28;;;;;;;14.27;7.68;;;6.40;99.90;;;;;;5038977;28;20381;-83
2021/12/05 16:23:56;;;;;;;9.77;6.15;;;6.40;99.90;;;;;;5038477;28;20817;-84
2021/12/05 16:26:27;;;;;;;11.02;5.95;;;6.40;99.90;;;;;;5037035;28;20549;-84
2021/12/05 16:29:00;;;;;;;10.98;5.88;;;6.40;99.90;;;;;;5037490;28;20410;-83
2021/12/05 16:31:26;;;;;;;;;;;6.40;99.90;;;;;;5027454;28;20037;-84
2021/12/05 16:34:05;;;;;;;10.27;5.65;;;6.30;99.90;;;;;;5033220;28;20400;-83
2021/12/05 16:36:40;;;;;;;10.55;6.22;;;6.30;99.90;;;;;;5049949;28;20131;-84
2021/12/05 16:39:17;;;;;;;11.20;6.32;;;6.30;99.90;;;;;;5049840;28;20033;-83
2021/12/05 16:41:50;;;;;;;10.57;6.65;;;6.30;99.90;;;;;;5050337;28;20044;-84
2021/12/05 16:44:22;;;;;;;12.63;6.63;;;6.30;99.90;;;;;;5049533;28;20045;-84
2021/12/05 16:46:57;;;;;;;15.07;6.40;;;6.30;99.90;;;;;;5050064;28;20383;-83
2021/12/05 16:49:27;;;;;;;12.48;7.22;;;6.20;99.90;;;;;;5049879;28;20045;-83
2021/12/05 16:51:59;;;;;;;12.02;7.85;;;6.30;99.90;;;;;;5049586;28;20041;-83
2021/12/05 16:54:28;;;;;;;11.60;6.28;;;6.30;99.90;;;;;;5049206;28;20405;-83
2021/12/05 16:56:58;;;;;;;12.50;7.57;;;6.20;99.90;;;;;;5049668;28;20040;-83
2021/12/05 16:59:43;;;;;;;12.18;7.95;;;6.20;99.90;;;;;;5049584;28;20406;-83
2021/12/05 17:02:09;;;;;;;13.30;8.35;;;6.20;99.90;;;;;;5048941;28;20750;-83
2021/12/05 17:05:00;;;;;;;12.48;8.10;;;6.20;99.90;;;;;;5049325;28;20123;-83
2021/12/05 17:08:28;;;;;;;12.82;7.97;;;6.20;99.90;;;;;;5035050;28;20070;-83
2021/12/05 17:10:46;;;;;;;12.95;8.82;;;6.20;99.90;;;;;;5029630;28;20080;-83
2021/12/05 17:13:18;;;;;;;14.38;9.00;;;6.20;99.90;;;;;;5048628;28;20154;-83
2021/12/05 17:15:51;;;;;;;13.95;10.13;;;6.20;99.90;;;;;;5048268;28;20044;-83
2021/12/05 17:18:42;;;;;;;13.32;8.00;;;6.20;99.90;;;;;;5046200;28;20041;-81
2021/12/05 17:21:18;;;;;;;14.25;9.25;;;6.20;99.90;;;;;;5048583;28;20045;-82
2021/12/05 17:23:48;;;;;;;14.73;9.05;;;6.20;99.90;;;;;;5053634;28;20496;-84
2021/12/05 17:26:21;;;;;;;16.15;10.27;;;6.10;99.90;;;;;;5055901;28;20044;-83
2021/12/05 17:28:51;;;;;;;17.70;10.75;;;6.20;99.90;;;;;;5039916;28;20517;-83
2021/12/05 17:31:25;;;;;;;17.67;10.85;;;6.20;99.90;;;;;;5060354;28;20052;-84
2021/12/05 17:33:53;;;;;;;18.83;10.68;;;6.20;99.90;;;;;;5057681;28;20043;-84
2021/12/05 17:36:21;;;;;;;18.65;11.20;;;6.20;99.90;;;;;;5075568;28;20393;-84
2021/12/05 17:38:50;;;;;;;17.85;11.10;;;6.20;99.90;;;;;;5076050;28;20085;-84
2021/12/05 17:41:16;;;;;;;15.90;11.55;;;6.20;99.90;;;;;;5059065;28;20441;-84
2021/12/05 17:43:42;;;;;;;16.63;11.40;;;6.20;99.90;;;;;;5050927;28;20174;-83
2021/12/05 17:46:08;;;;;;;23.02;14.40;;;6.30;99.90;;;;;;5043798;28;20127;-84
2021/12/05 17:48:33;;;;;;;24.90;14.40;;;6.30;99.90;;;;;;5046357;28;20170;-83
2021/12/05 17:51:04;;;;;;;22.23;13.73;;;6.30;99.90;;;;;;5028965;28;20413;-84
2021/12/05 17:53:33;;;;;;;19.48;12.73;;;6.30;99.90;;;;;;5035022;28;20044;-84
2021/12/05 17:56:04;;;;;;;20.75;13.20;;;6.30;99.90;;;;;;5055691;28;20051;-84
2021/12/05 17:58:54;;;;;;;18.25;11.90;;;6.30;99.90;;;;;;5056282;28;20102;-84
2021/12/05 18:04:06;;;;;;;24.50;13.95;;;6.30;99.90;;;;;;5072186;28;20489;-84
2021/12/05 18:06:33;;;;;;;23.02;13.48;;;6.30;99.90;;;;;;5039296;28;20106;-84
2021/12/05 18:08:59;;;;;;;20.98;13.70;;;6.30;99.90;;;;;;5055129;28;20044;-83
2021/12/05 18:11:25;;;;;;;20.83;12.65;;;6.30;99.90;;;;;;5073046;28;20039;-84